METAR Data
IDs: Format: Raw Decoded Include TAF

Data at: 1748 UTC 26 Oct 2021

METAR for:KPOU (Poughkeepsie/Dutches, NY, US)
Text:KPOU 261653Z 07012G19KT 2 1/2SM -RA BR SCT020 BKN032 OVC050 16/13 A2934 RMK AO2 SLP934 P0006 T01560133
Temperature: 15.6°C ( 60°F)
Dewpoint: 13.3°C ( 56°F) [RH = 86%]
Pressure (altimeter):29.34 inches Hg ( 993.6 mb) [Sea level pressure: 993.4 mb]
Winds:from the ENE (70 degrees) at 14 MPH (12 knots; 6.2 m/s) gusting to 22 MPH (19 knots; 9.8 m/s)
Visibility: 2.50 sm ( 4.02 km)
Ceiling:3200 feet AGL
Clouds: scattered clouds at 2000 feet AGL, broken clouds at 3200 feet AGL, overcast cloud deck at 5000 feet AGL
Weather:-RA BR (light rain, mist)
Text:KPOU 261651Z 07011G19KT 2 1/2SM -RA BR SCT020 BKN035 OVC060 16/13 A2935 RMK AO2 P0006
Temperature: 16.0°C ( 61°F)
Dewpoint: 13.0°C ( 55°F) [RH = 82%]
Pressure (altimeter):29.35 inches Hg ( 994.0 mb)
Winds:from the ENE (70 degrees) at 13 MPH (11 knots; 5.7 m/s) gusting to 22 MPH (19 knots; 9.8 m/s)
Visibility: 2.50 sm ( 4.02 km)
Ceiling:3500 feet AGL
Clouds: scattered clouds at 2000 feet AGL, broken clouds at 3500 feet AGL, overcast cloud deck at 6000 feet AGL
Weather:-RA BR (light rain, mist)
Text:KPOU 261553Z 03007G16KT 2 1/2SM -RA BR BKN017 OVC025 14/13 A2937 RMK AO2 SLP943 P0010 T01390128
Temperature: 13.9°C ( 57°F)
Dewpoint: 12.8°C ( 55°F) [RH = 93%]
Pressure (altimeter):29.37 inches Hg ( 994.7 mb) [Sea level pressure: 994.3 mb]
Winds:from the NNE (30 degrees) at 8 MPH (7 knots; 3.6 m/s) gusting to 18 MPH (16 knots; 8.2 m/s)
Visibility: 2.50 sm ( 4.02 km)
Ceiling:1700 feet AGL
Clouds: broken clouds at 1700 feet AGL, overcast cloud deck at 2500 feet AGL
Weather:-RA BR (light rain, mist)
Text:KPOU 261512Z 36006KT 2 1/2SM RA BR BKN015 OVC021 13/12 A2941 RMK AO2 P0004 T01280117
Temperature: 12.8°C ( 55°F)
Dewpoint: 11.7°C ( 53°F) [RH = 93%]
Pressure (altimeter):29.41 inches Hg ( 996.0 mb)
Winds:from the N (360 degrees) at 7 MPH (6 knots; 3.1 m/s)
Visibility: 2.50 sm ( 4.02 km)
Ceiling:1500 feet AGL
Clouds: broken clouds at 1500 feet AGL, overcast cloud deck at 2100 feet AGL
Weather:RA BR (moderate rain, mist)
Text:KPOU 261457Z 36007KT 1 3/4SM RA BR BKN015 OVC021 13/12 A2942 RMK AO2 P0002 T01280117
Temperature: 12.8°C ( 55°F)
Dewpoint: 11.7°C ( 53°F) [RH = 93%]
Pressure (altimeter):29.42 inches Hg ( 996.4 mb)
Winds:from the N (360 degrees) at 8 MPH (7 knots; 3.6 m/s)
Visibility: 1.75 sm ( 2.82 km)
Ceiling:1500 feet AGL
Clouds: broken clouds at 1500 feet AGL, overcast cloud deck at 2100 feet AGL
Weather:RA BR (moderate rain, mist)
Text:KPOU 261453Z 36008KT 2 1/2SM RA BR BKN015 OVC021 12/12 A2942 RMK AO2 SLP958 P0007 60026 T01220117 58044
Temperature: 12.2°C ( 54°F)
Dewpoint: 11.7°C ( 53°F) [RH = 97%]
Pressure (altimeter):29.42 inches Hg ( 996.4 mb) [Sea level pressure: 995.8 mb]
Winds:from the N (360 degrees) at 9 MPH (8 knots; 4.1 m/s)
Visibility: 2.50 sm ( 4.02 km)
Ceiling:1500 feet AGL
Clouds: broken clouds at 1500 feet AGL, overcast cloud deck at 2100 feet AGL
Weather:RA BR (moderate rain, mist)
Text:KPOU 261353Z 01010KT 2 1/2SM RA BR FEW006 OVC018 12/11 A2946 RMK AO2 SLP973 P0007 T01220111
Temperature: 12.2°C ( 54°F)
Dewpoint: 11.1°C ( 52°F) [RH = 93%]
Pressure (altimeter):29.46 inches Hg ( 997.7 mb) [Sea level pressure: 997.3 mb]
Winds:from the N (10 degrees) at 12 MPH (10 knots; 5.1 m/s)
Visibility: 2.50 sm ( 4.02 km)
Ceiling:1800 feet AGL
Clouds: few clouds at 600 feet AGL, overcast cloud deck at 1800 feet AGL
Weather:RA BR (moderate rain, mist)
Text:KPOU 261253Z 01010KT 2 1/2SM RA BR FEW006 OVC018 12/11 A2950 RMK AO2 SLP988 P0012 T01170106
Temperature: 11.7°C ( 53°F)
Dewpoint: 10.6°C ( 51°F) [RH = 93%]
Pressure (altimeter):29.50 inches Hg ( 999.1 mb) [Sea level pressure: 998.8 mb]
Winds:from the N (10 degrees) at 12 MPH (10 knots; 5.1 m/s)
Visibility: 2.50 sm ( 4.02 km)
Ceiling:1800 feet AGL
Clouds: few clouds at 600 feet AGL, overcast cloud deck at 1800 feet AGL
Weather:RA BR (moderate rain, mist)
Text:KPOU 261153Z 01008KT 2 1/2SM RA BR SCT009 OVC013 11/11 A2955 RMK AO2 SLP002 P0020 60110 70187 T01110106 10117 20106 56031
Temperature: 11.1°C ( 52°F)
Dewpoint: 10.6°C ( 51°F) [RH = 97%]
Pressure (altimeter):29.55 inches Hg (1000.8 mb) [Sea level pressure: 1000.2 mb]
Winds:from the N (10 degrees) at 9 MPH (8 knots; 4.1 m/s)
Visibility: 2.50 sm ( 4.02 km)
Ceiling:1300 feet AGL
Clouds: scattered clouds at 900 feet AGL, overcast cloud deck at 1300 feet AGL
Weather:RA BR (moderate rain, mist)
Text:KPOU 261122Z 35007KT 2 1/2SM RA BR SCT009 OVC013 11/11 A2956 RMK AO2 P0011 T01110106
Temperature: 11.1°C ( 52°F)
Dewpoint: 10.6°C ( 51°F) [RH = 97%]
Pressure (altimeter):29.56 inches Hg (1001.1 mb)
Winds:from the N (350 degrees) at 8 MPH (7 knots; 3.6 m/s)
Visibility: 2.50 sm ( 4.02 km)
Ceiling:1300 feet AGL
Clouds: scattered clouds at 900 feet AGL, overcast cloud deck at 1300 feet AGL
Weather:RA BR (moderate rain, mist)
Text:KPOU 261053Z 35007KT 5SM RA BR SCT007 OVC017 12/11 A2957 RMK AO2 SLP010 P0008 T01170106
Temperature: 11.7°C ( 53°F)
Dewpoint: 10.6°C ( 51°F) [RH = 93%]
Pressure (altimeter):29.57 inches Hg (1001.4 mb) [Sea level pressure: 1001.0 mb]
Winds:from the N (350 degrees) at 8 MPH (7 knots; 3.6 m/s)
Visibility: 5 sm ( 8 km)
Ceiling:1700 feet AGL
Clouds: scattered clouds at 700 feet AGL, overcast cloud deck at 1700 feet AGL
Weather:RA BR (moderate rain, mist)
Text:KPOU 260953Z AUTO 35007KT 4SM RA BR FEW007 BKN017 OVC024 11/11 A2961 RMK AO2 SLP024 P0024 T01110106
Temperature: 11.1°C ( 52°F)
Dewpoint: 10.6°C ( 51°F) [RH = 97%]
Pressure (altimeter):29.61 inches Hg (1002.8 mb) [Sea level pressure: 1002.4 mb]
Winds:from the N (350 degrees) at 8 MPH (7 knots; 3.6 m/s)
Visibility: 4 sm ( 6 km)
Ceiling:1700 feet AGL
Clouds: few clouds at 700 feet AGL, broken clouds at 1700 feet AGL, overcast cloud deck at 2400 feet AGL
Weather:RA BR (moderate rain, mist)
QC Flag:automated observation with no human augmentation
Text:KPOU 260932Z AUTO 01007KT 4SM RA BR BKN017 OVC022 11/11 A2963 RMK AO2 P0019 T01110106
Temperature: 11.1°C ( 52°F)
Dewpoint: 10.6°C ( 51°F) [RH = 97%]
Pressure (altimeter):29.63 inches Hg (1003.5 mb)
Winds:from the N (10 degrees) at 8 MPH (7 knots; 3.6 m/s)
Visibility: 4 sm ( 6 km)
Ceiling:1700 feet AGL
Clouds: broken clouds at 1700 feet AGL, overcast cloud deck at 2200 feet AGL
Weather:RA BR (moderate rain, mist)
QC Flag:automated observation with no human augmentation
Text:KPOU 260910Z AUTO 01006KT 2SM RA BR FEW007 BKN015 OVC021 11/11 A2964 RMK AO2 P0008 T01110106
Temperature: 11.1°C ( 52°F)
Dewpoint: 10.6°C ( 51°F) [RH = 97%]
Pressure (altimeter):29.64 inches Hg (1003.8 mb)
Winds:from the N (10 degrees) at 7 MPH (6 knots; 3.1 m/s)
Visibility: 2.00 sm ( 3.22 km)
Ceiling:1500 feet AGL
Clouds: few clouds at 700 feet AGL, broken clouds at 1500 feet AGL, overcast cloud deck at 2100 feet AGL
Weather:RA BR (moderate rain, mist)
QC Flag:automated observation with no human augmentation
Text:KPOU 260859Z AUTO 36006KT 5SM RA BR FEW008 OVC015 11/11 A2964 RMK AO2 P0002 T01110106
Temperature: 11.1°C ( 52°F)
Dewpoint: 10.6°C ( 51°F) [RH = 97%]
Pressure (altimeter):29.64 inches Hg (1003.8 mb)
Winds:from the N (360 degrees) at 7 MPH (6 knots; 3.1 m/s)
Visibility: 5 sm ( 8 km)
Ceiling:1500 feet AGL
Clouds: few clouds at 800 feet AGL, overcast cloud deck at 1500 feet AGL
Weather:RA BR (moderate rain, mist)
QC Flag:automated observation with no human augmentation
Text:KPOU 260853Z AUTO 01006KT 4SM -RA BR BKN014 OVC022 11/11 A2964 RMK AO2 SLP033 P0024 60058 T01110106 56030
Temperature: 11.1°C ( 52°F)
Dewpoint: 10.6°C ( 51°F) [RH = 97%]
Pressure (altimeter):29.64 inches Hg (1003.8 mb) [Sea level pressure: 1003.3 mb]
Winds:from the N (10 degrees) at 7 MPH (6 knots; 3.1 m/s)
Visibility: 4 sm ( 6 km)
Ceiling:1400 feet AGL
Clouds: broken clouds at 1400 feet AGL, overcast cloud deck at 2200 feet AGL
Weather:-RA BR (light rain, mist)
QC Flag:automated observation with no human augmentation
Text:KPOU 260809Z AUTO 34005KT 2SM +RA BR BKN015 OVC020 11/11 A2965 RMK AO2 P0007 T01110106
Temperature: 11.1°C ( 52°F)
Dewpoint: 10.6°C ( 51°F) [RH = 97%]
Pressure (altimeter):29.65 inches Hg (1004.1 mb)
Winds:from the NNW (340 degrees) at 6 MPH (5 knots; 2.6 m/s)
Visibility: 2.00 sm ( 3.22 km)
Ceiling:1500 feet AGL
Clouds: broken clouds at 1500 feet AGL, overcast cloud deck at 2000 feet AGL
Weather:+RA BR (heavy rain, mist)
QC Flag:automated observation with no human augmentation
Text:KPOU 260753Z AUTO 33007KT 1 1/4SM +RA BR OVC015 11/10 A2965 RMK AO2 RAE18B24 SLP036 P0018 T01110100
Temperature: 11.1°C ( 52°F)
Dewpoint: 10.0°C ( 50°F) [RH = 93%]
Pressure (altimeter):29.65 inches Hg (1004.1 mb) [Sea level pressure: 1003.6 mb]
Winds:from the NNW (330 degrees) at 8 MPH (7 knots; 3.6 m/s)
Visibility: 1.25 sm ( 2.01 km)
Ceiling:1500 feet AGL
Clouds: overcast cloud deck at 1500 feet AGL
Weather:+RA BR (heavy rain, mist)
QC Flag:automated observation with no human augmentation
Text:KPOU 260747Z AUTO 35003KT 1 3/4SM +RA BR OVC015 11/11 A2966 RMK AO2 RAE18B24 P0010
Temperature: 11.0°C ( 52°F)
Dewpoint: 11.0°C ( 52°F) [RH = 100%]
Pressure (altimeter):29.66 inches Hg (1004.5 mb)
Winds:from the N (350 degrees) at 3 MPH (3 knots; 1.5 m/s)
Visibility: 1.75 sm ( 2.82 km)
Ceiling:1500 feet AGL
Clouds: overcast cloud deck at 1500 feet AGL
Weather:+RA BR (heavy rain, mist)
QC Flag:automated observation with no human augmentation
Text:KPOU 260723Z AUTO 33005KT 10SM BKN016 OVC047 12/11 A2966 RMK AO2 RAE18 P0002 T01170106
Temperature: 11.7°C ( 53°F)
Dewpoint: 10.6°C ( 51°F) [RH = 93%]
Pressure (altimeter):29.66 inches Hg (1004.5 mb)
Winds:from the NNW (330 degrees) at 6 MPH (5 knots; 2.6 m/s)
Visibility:10 or more sm (16+ km)
Ceiling:1600 feet AGL
Clouds: broken clouds at 1600 feet AGL, overcast cloud deck at 4700 feet AGL
QC Flag:automated observation with no human augmentation
Text:KPOU 260709Z AUTO 36006KT 8SM -RA BKN014 BKN025 OVC080 12/11 A2967 RMK AO2 P0001 T01170106
Temperature: 11.7°C ( 53°F)
Dewpoint: 10.6°C ( 51°F) [RH = 93%]
Pressure (altimeter):29.67 inches Hg (1004.8 mb)
Winds:from the N (360 degrees) at 7 MPH (6 knots; 3.1 m/s)
Visibility: 8 sm ( 13 km)
Ceiling:1400 feet AGL
Clouds: broken clouds at 1400 feet AGL, broken clouds at 2500 feet AGL, overcast cloud deck at 8000 feet AGL
Weather:-RA (light rain)
QC Flag:automated observation with no human augmentation
Text:KPOU 260653Z AUTO 02006KT 6SM -RA BR SCT016 BKN024 OVC075 12/10 A2968 RMK AO2 SLP048 P0016 T01170100
Temperature: 11.7°C ( 53°F)
Dewpoint: 10.0°C ( 50°F) [RH = 89%]
Pressure (altimeter):29.68 inches Hg (1005.2 mb) [Sea level pressure: 1004.8 mb]
Winds:from the NNE (20 degrees) at 7 MPH (6 knots; 3.1 m/s)
Visibility: 6 sm ( 10 km)
Ceiling:2400 feet AGL
Clouds: scattered clouds at 1600 feet AGL, broken clouds at 2400 feet AGL, overcast cloud deck at 7500 feet AGL
Weather:-RA BR (light rain, mist)
QC Flag:automated observation with no human augmentation
Text:KPOU 260636Z AUTO 05004KT 5SM RA BR SCT015 BKN023 OVC040 12/11 A2970 RMK AO2 P0014 T01170106
Temperature: 11.7°C ( 53°F)
Dewpoint: 10.6°C ( 51°F) [RH = 93%]
Pressure (altimeter):29.70 inches Hg (1005.8 mb)
Winds:from the NE (50 degrees) at 5 MPH (4 knots; 2.1 m/s)
Visibility: 5 sm ( 8 km)
Ceiling:2300 feet AGL
Clouds: scattered clouds at 1500 feet AGL, broken clouds at 2300 feet AGL, overcast cloud deck at 4000 feet AGL
Weather:RA BR (moderate rain, mist)
QC Flag:automated observation with no human augmentation
Text:KPOU 260622Z AUTO 03005KT 5SM -RA BR FEW010 BKN040 OVC060 12/11 A2971 RMK AO2 P0012 T01170106
Temperature: 11.7°C ( 53°F)
Dewpoint: 10.6°C ( 51°F) [RH = 93%]
Pressure (altimeter):29.71 inches Hg (1006.2 mb)
Winds:from the NNE (30 degrees) at 6 MPH (5 knots; 2.6 m/s)
Visibility: 5 sm ( 8 km)
Ceiling:4000 feet AGL
Clouds: few clouds at 1000 feet AGL, broken clouds at 4000 feet AGL, overcast cloud deck at 6000 feet AGL
Weather:-RA BR (light rain, mist)
QC Flag:automated observation with no human augmentation
Text:KPOU 260611Z AUTO 05006KT 2SM +RA BR FEW011 BKN032 OVC060 12/11 A2971 RMK AO2 P0010 T01170106
Temperature: 11.7°C ( 53°F)
Dewpoint: 10.6°C ( 51°F) [RH = 93%]
Pressure (altimeter):29.71 inches Hg (1006.2 mb)
Winds:from the NE (50 degrees) at 7 MPH (6 knots; 3.1 m/s)
Visibility: 2.00 sm ( 3.22 km)
Ceiling:3200 feet AGL
Clouds: few clouds at 1100 feet AGL, broken clouds at 3200 feet AGL, overcast cloud deck at 6000 feet AGL
Weather:+RA BR (heavy rain, mist)
QC Flag:automated observation with no human augmentation
Text:KPOU 260553Z AUTO 06006KT 5SM RA BR BKN032 BKN060 OVC090 12/11 A2973 RMK AO2 SLP063 P0006 60077 T01220106 10161 20122 58024
Temperature: 12.2°C ( 54°F)
Dewpoint: 10.6°C ( 51°F) [RH = 90%]
Pressure (altimeter):29.73 inches Hg (1006.9 mb) [Sea level pressure: 1006.3 mb]
Winds:from the ENE (60 degrees) at 7 MPH (6 knots; 3.1 m/s)
Visibility: 5 sm ( 8 km)
Ceiling:3200 feet AGL
Clouds: broken clouds at 3200 feet AGL, broken clouds at 6000 feet AGL, overcast cloud deck at 9000 feet AGL
Weather:RA BR (moderate rain, mist)
QC Flag:automated observation with no human augmentation
Text:KPOU 260510Z AUTO 05010G15KT 4SM -RA BR FEW007 BKN050 OVC075 13/13 A2975 RMK AO2 P0003 T01330128
Temperature: 13.3°C ( 56°F)
Dewpoint: 12.8°C ( 55°F) [RH = 97%]
Pressure (altimeter):29.75 inches Hg (1007.5 mb)
Winds:from the NE (50 degrees) at 12 MPH (10 knots; 5.1 m/s) gusting to 17 MPH (15 knots; 7.7 m/s)
Visibility: 4 sm ( 6 km)
Ceiling:5000 feet AGL
Clouds: few clouds at 700 feet AGL, broken clouds at 5000 feet AGL, overcast cloud deck at 7500 feet AGL
Weather:-RA BR (light rain, mist)
QC Flag:automated observation with no human augmentation
Text:KPOU 260458Z AUTO 03004KT 4SM RA BR BKN007 BKN026 OVC075 13/13 A2976 RMK AO2 P0001 T01330128
Temperature: 13.3°C ( 56°F)
Dewpoint: 12.8°C ( 55°F) [RH = 97%]
Pressure (altimeter):29.76 inches Hg (1007.9 mb)
Winds:from the NNE (30 degrees) at 5 MPH (4 knots; 2.1 m/s)
Visibility: 4 sm ( 6 km)
Ceiling:700 feet AGL
Clouds: broken clouds at 700 feet AGL, broken clouds at 2600 feet AGL, overcast cloud deck at 7500 feet AGL
Weather:RA BR (moderate rain, mist)
QC Flag:automated observation with no human augmentation
Text:KPOU 260453Z AUTO 02004KT 4SM -RA BR SCT007 SCT033 OVC075 13/13 A2976 RMK AO2 SLP074 P0013 T01330128 402110100
Temperature: 13.3°C ( 56°F)
Dewpoint: 12.8°C ( 55°F) [RH = 97%]
Pressure (altimeter):29.76 inches Hg (1007.9 mb) [Sea level pressure: 1007.4 mb]
Winds:from the NNE (20 degrees) at 5 MPH (4 knots; 2.1 m/s)
Visibility: 4 sm ( 6 km)
Ceiling:7500 feet AGL
Clouds: scattered clouds at 700 feet AGL, scattered clouds at 3300 feet AGL, overcast cloud deck at 7500 feet AGL
Weather:-RA BR (light rain, mist)
QC Flag:automated observation with no human augmentation
Text:KPOU 260428Z AUTO 36004KT 3SM RA BR BKN006 BKN025 OVC033 14/13 A2978 RMK AO2 LTG DSNT NE P0008 T01390128
Temperature: 13.9°C ( 57°F)
Dewpoint: 12.8°C ( 55°F) [RH = 93%]
Pressure (altimeter):29.78 inches Hg (1008.5 mb)
Winds:from the N (360 degrees) at 5 MPH (4 knots; 2.1 m/s)
Visibility: 3 sm ( 5 km)
Ceiling:600 feet AGL
Clouds: broken clouds at 600 feet AGL, broken clouds at 2500 feet AGL, overcast cloud deck at 3300 feet AGL
Weather:RA BR (moderate rain, mist)
QC Flag:automated observation with no human augmentation
Text:KPOU 260419Z AUTO 01004KT 4SM RA BR SCT006 BKN027 OVC085 14/13 A2978 RMK AO2 LTG DSNT NE P0006 T01390128
Temperature: 13.9°C ( 57°F)
Dewpoint: 12.8°C ( 55°F) [RH = 93%]
Pressure (altimeter):29.78 inches Hg (1008.5 mb)
Winds:from the N (10 degrees) at 5 MPH (4 knots; 2.1 m/s)
Visibility: 4 sm ( 6 km)
Ceiling:2700 feet AGL
Clouds: scattered clouds at 600 feet AGL, broken clouds at 2700 feet AGL, overcast cloud deck at 8500 feet AGL
Weather:RA BR (moderate rain, mist)
QC Flag:automated observation with no human augmentation
Text:KPOU 260408Z AUTO 05004KT 6SM -RA BR BKN006 BKN055 OVC090 13/13 A2978 RMK AO2 LTG DSNT NE P0002 T01330128
Temperature: 13.3°C ( 56°F)
Dewpoint: 12.8°C ( 55°F) [RH = 97%]
Pressure (altimeter):29.78 inches Hg (1008.5 mb)
Winds:from the NE (50 degrees) at 5 MPH (4 knots; 2.1 m/s)
Visibility: 6 sm ( 10 km)
Ceiling:600 feet AGL
Clouds: broken clouds at 600 feet AGL, broken clouds at 5500 feet AGL, overcast cloud deck at 9000 feet AGL
Weather:-RA BR (light rain, mist)
QC Flag:automated observation with no human augmentation
Text:KPOU 260353Z AUTO 00000KT 3SM RA BR FEW007 BKN038 OVC080 13/13 A2978 RMK AO2 LTG DSNT N AND NE TSE0255 SLP081 P0049 T01330128
Temperature: 13.3°C ( 56°F)
Dewpoint: 12.8°C ( 55°F) [RH = 97%]
Pressure (altimeter):29.78 inches Hg (1008.5 mb) [Sea level pressure: 1008.1 mb]
Winds:calm
Visibility: 3 sm ( 5 km)
Ceiling:3800 feet AGL
Clouds: few clouds at 700 feet AGL, broken clouds at 3800 feet AGL, overcast cloud deck at 8000 feet AGL
Weather:RA BR (moderate rain, mist)
QC Flag:automated observation with no human augmentation
Text:KPOU 260348Z AUTO 11003KT 3SM RA BR SCT007 BKN016 OVC035 13/13 A2978 RMK AO2 LTG DSNT N AND NE TSE0255 P0047
Temperature: 13.0°C ( 55°F)
Dewpoint: 13.0°C ( 55°F) [RH = 100%]
Pressure (altimeter):29.78 inches Hg (1008.5 mb)
Winds:from the ESE (110 degrees) at 3 MPH (3 knots; 1.5 m/s)
Visibility: 3 sm ( 5 km)
Ceiling:1600 feet AGL
Clouds: scattered clouds at 700 feet AGL, broken clouds at 1600 feet AGL, overcast cloud deck at 3500 feet AGL
Weather:RA BR (moderate rain, mist)
QC Flag:automated observation with no human augmentation
Text:KPOU 260345Z AUTO 13004KT 2SM RA BR SCT007 SCT016 OVC031 13/13 A2979 RMK AO2 LTG DSNT ALQDS TSE0255 P0047 T01330128
Temperature: 13.3°C ( 56°F)
Dewpoint: 12.8°C ( 55°F) [RH = 97%]
Pressure (altimeter):29.79 inches Hg (1008.9 mb)
Winds:from the SE (130 degrees) at 5 MPH (4 knots; 2.1 m/s)
Visibility: 2.00 sm ( 3.22 km)
Ceiling:3100 feet AGL
Clouds: scattered clouds at 700 feet AGL, scattered clouds at 1600 feet AGL, overcast cloud deck at 3100 feet AGL
Weather:RA BR (moderate rain, mist)
QC Flag:automated observation with no human augmentation
Text:KPOU 260340Z AUTO 03003KT 1SM +RA BR SCT007 BKN016 OVC029 13/13 A2979 RMK AO2 LTG DSNT ALQDS TSE0255 P0045 T01330128
Temperature: 13.3°C ( 56°F)
Dewpoint: 12.8°C ( 55°F) [RH = 97%]
Pressure (altimeter):29.79 inches Hg (1008.9 mb)
Winds:from the NNE (30 degrees) at 3 MPH (3 knots; 1.5 m/s)
Visibility: 1.00 sm ( 1.61 km)
Ceiling:1600 feet AGL
Clouds: scattered clouds at 700 feet AGL, broken clouds at 1600 feet AGL, overcast cloud deck at 2900 feet AGL
Weather:+RA BR (heavy rain, mist)
QC Flag:automated observation with no human augmentation
Text:KPOU 260331Z AUTO VRB03KT 1/2SM VCTS +RA FG SCT007 BKN016 OVC075 13/13 A2981 RMK AO2 LTG DSNT S TSE0255 P0036 T01330128
Temperature: 13.3°C ( 56°F)
Dewpoint: 12.8°C ( 55°F) [RH = 97%]
Pressure (altimeter):29.81 inches Hg (1009.6 mb)
Winds:variable direction winds at 3 MPH (3 knots; 1.5 m/s)
Visibility: 0.50 sm ( 0.80 km)
Ceiling:1600 feet AGL
Clouds: scattered clouds at 700 feet AGL, broken clouds at 1600 feet AGL, overcast cloud deck at 7500 feet AGL
Weather:VCTS +RA FG (thunderstorm in vicinity, heavy rain, fog)
QC Flag:automated observation with no human augmentation
Text:KPOU 260318Z AUTO VRB03KT 1 3/4SM VCTS +RA BR BKN007 BKN019 OVC080 13/13 A2980 RMK AO2 LTG DSNT NE AND E TSE0255 P0011 T01330128
Temperature: 13.3°C ( 56°F)
Dewpoint: 12.8°C ( 55°F) [RH = 97%]
Pressure (altimeter):29.80 inches Hg (1009.2 mb)
Winds:variable direction winds at 3 MPH (3 knots; 1.5 m/s)
Visibility: 1.75 sm ( 2.82 km)
Ceiling:700 feet AGL
Clouds: broken clouds at 700 feet AGL, broken clouds at 1900 feet AGL, overcast cloud deck at 8000 feet AGL
Weather:VCTS +RA BR (thunderstorm in vicinity, heavy rain, mist)
QC Flag:automated observation with no human augmentation
Text:KPOU 260314Z AUTO VRB03KT 2 1/2SM VCTS +RA BR BKN010 BKN026 OVC090 14/13 A2980 RMK AO2 LTG DSNT NE AND E AND SW TSE0255 P0007 T01390128
Temperature: 13.9°C ( 57°F)
Dewpoint: 12.8°C ( 55°F) [RH = 93%]
Pressure (altimeter):29.80 inches Hg (1009.2 mb)
Winds:variable direction winds at 3 MPH (3 knots; 1.5 m/s)
Visibility: 2.50 sm ( 4.02 km)
Ceiling:1000 feet AGL
Clouds: broken clouds at 1000 feet AGL, broken clouds at 2600 feet AGL, overcast cloud deck at 9000 feet AGL
Weather:VCTS +RA BR (thunderstorm in vicinity, heavy rain, mist)
QC Flag:automated observation with no human augmentation
Text:KPOU 260305Z AUTO 09008KT 5SM VCTS RA BR SCT012 BKN026 OVC100 14/13 A2978 RMK AO2 LTG DSNT ALQDS TSE0255 P0002 T01390128
Temperature: 13.9°C ( 57°F)
Dewpoint: 12.8°C ( 55°F) [RH = 93%]
Pressure (altimeter):29.78 inches Hg (1008.5 mb)
Winds:from the E (90 degrees) at 9 MPH (8 knots; 4.1 m/s)
Visibility: 5 sm ( 8 km)
Ceiling:2600 feet AGL
Clouds: scattered clouds at 1200 feet AGL, broken clouds at 2600 feet AGL, overcast cloud deck at 10000 feet AGL
Weather:VCTS RA BR (thunderstorm in vicinity, moderate rain, mist)
QC Flag:automated observation with no human augmentation
Text:KPOU 260301Z AUTO 08005KT 5SM RA BR BKN012 BKN026 OVC055 14/13 A2978 RMK AO2 LTG DSNT ALQDS TSE0255 P0001 T01390128
Temperature: 13.9°C ( 57°F)
Dewpoint: 12.8°C ( 55°F) [RH = 93%]
Pressure (altimeter):29.78 inches Hg (1008.5 mb)
Winds:from the E (80 degrees) at 6 MPH (5 knots; 2.6 m/s)
Visibility: 5 sm ( 8 km)
Ceiling:1200 feet AGL
Clouds: broken clouds at 1200 feet AGL, broken clouds at 2600 feet AGL, overcast cloud deck at 5500 feet AGL
Weather:RA BR (moderate rain, mist)
QC Flag:automated observation with no human augmentation
Text:KPOU 260253Z AUTO 09005KT 3SM -TSRA BR BKN010 BKN027 OVC050 14/13 A2980 RMK AO2 LTG DSNT ALQDS RAB28 TSB40 SLP087 P0009 60009 T01390128 58004
Temperature: 13.9°C ( 57°F)
Dewpoint: 12.8°C ( 55°F) [RH = 93%]
Pressure (altimeter):29.80 inches Hg (1009.2 mb) [Sea level pressure: 1008.7 mb]
Winds:from the E (90 degrees) at 6 MPH (5 knots; 2.6 m/s)
Visibility: 3 sm ( 5 km)
Ceiling:1000 feet AGL
Clouds: broken clouds at 1000 feet AGL, broken clouds at 2700 feet AGL, overcast cloud deck at 5000 feet AGL
Weather:-TSRA BR (light rain associated with thunderstorm(s), mist)
QC Flag:automated observation with no human augmentation
Text:KPOU 260246Z AUTO 07006KT 2 1/2SM +TSRA BR BKN010 OVC050 14/13 A2980 RMK AO2 LTG DSNT ALQDS RAB28 TSB40 P0008 T01440128
Temperature: 14.4°C ( 58°F)
Dewpoint: 12.8°C ( 55°F) [RH = 90%]
Pressure (altimeter):29.80 inches Hg (1009.2 mb)
Winds:from the ENE (70 degrees) at 7 MPH (6 knots; 3.1 m/s)
Visibility: 2.50 sm ( 4.02 km)
Ceiling:1000 feet AGL
Clouds: broken clouds at 1000 feet AGL, overcast cloud deck at 5000 feet AGL
Weather:+TSRA BR (heavy rain associated with thunderstorm(s), mist)
QC Flag:automated observation with no human augmentation
Text:KPOU 260227Z AUTO 09007KT 9SM VCTS OVC010 15/13 A2982 RMK AO2 LTG DSNT E-SW T01500128
Temperature: 15.0°C ( 59°F)
Dewpoint: 12.8°C ( 55°F) [RH = 87%]
Pressure (altimeter):29.82 inches Hg (1009.9 mb)
Winds:from the E (90 degrees) at 8 MPH (7 knots; 3.6 m/s)
Visibility: 9 sm ( 14 km)
Ceiling:1000 feet AGL
Clouds: overcast cloud deck at 1000 feet AGL
Weather:VCTS (thunderstorm in vicinity)
QC Flag:automated observation with no human augmentation
Text:KPOU 260153Z AUTO 06005KT 10SM OVC010 15/13 A2980 RMK AO2 LTG DSNT SE AND S SLP088 T01500128
Temperature: 15.0°C ( 59°F)
Dewpoint: 12.8°C ( 55°F) [RH = 87%]
Pressure (altimeter):29.80 inches Hg (1009.2 mb) [Sea level pressure: 1008.8 mb]
Winds:from the ENE (60 degrees) at 6 MPH (5 knots; 2.6 m/s)
Visibility:10 or more sm (16+ km)
Ceiling:1000 feet AGL
Clouds: overcast cloud deck at 1000 feet AGL
QC Flag:automated observation with no human augmentation
Text:KPOU 260053Z AUTO 00000KT 10SM OVC010 16/13 A2982 RMK AO2 SLP093 T01560133
Temperature: 15.6°C ( 60°F)
Dewpoint: 13.3°C ( 56°F) [RH = 86%]
Pressure (altimeter):29.82 inches Hg (1009.9 mb) [Sea level pressure: 1009.3 mb]
Winds:calm
Visibility:10 or more sm (16+ km)
Ceiling:1000 feet AGL
Clouds: overcast cloud deck at 1000 feet AGL
QC Flag:automated observation with no human augmentation
Text:KPOU 252353Z 08005KT 10SM BKN013 16/14 A2981 RMK AO2 SLP092 T01610139 10211 20161 51001
Temperature: 16.1°C ( 61°F)
Dewpoint: 13.9°C ( 57°F) [RH = 87%]
Pressure (altimeter):29.81 inches Hg (1009.6 mb) [Sea level pressure: 1009.2 mb]
Winds:from the E (80 degrees) at 6 MPH (5 knots; 2.6 m/s)
Visibility:10 or more sm (16+ km)
Ceiling:1300 feet AGL
Clouds: broken clouds at 1300 feet AGL
Text:KPOU 252350Z VRB05KT 10SM BKN014 16/14 A2981 RMK AO2
Temperature: 16.0°C ( 61°F)
Dewpoint: 14.0°C ( 57°F) [RH = 88%]
Pressure (altimeter):29.81 inches Hg (1009.6 mb)
Winds:variable direction winds at 6 MPH (5 knots; 2.6 m/s)
Visibility:10 or more sm (16+ km)
Ceiling:1400 feet AGL
Clouds: broken clouds at 1400 feet AGL
Text:KPOU 252253Z 08005KT 10SM CLR 17/14 A2982 RMK AO2 SLP093 T01720144
Temperature: 17.2°C ( 63°F)
Dewpoint: 14.4°C ( 58°F) [RH = 84%]
Pressure (altimeter):29.82 inches Hg (1009.9 mb) [Sea level pressure: 1009.3 mb]
Winds:from the E (80 degrees) at 6 MPH (5 knots; 2.6 m/s)
Visibility:10 or more sm (16+ km)
Ceiling:at least 12,000 feet AGL
Clouds:sky clear below 12,000 feet AGL
Text:KPOU 252153Z 13004KT 10SM BKN037 20/16 A2981 RMK AO2 SLP091 T02000161
Temperature: 20.0°C ( 68°F)
Dewpoint: 16.1°C ( 61°F) [RH = 78%]
Pressure (altimeter):29.81 inches Hg (1009.6 mb) [Sea level pressure: 1009.1 mb]
Winds:from the SE (130 degrees) at 5 MPH (4 knots; 2.1 m/s)
Visibility:10 or more sm (16+ km)
Ceiling:3700 feet AGL
Clouds: broken clouds at 3700 feet AGL
Text:KPOU 252120Z 10004KT 10SM SCT028 BKN035 BKN042 20/17 A2981 RMK AO2 T02000167
Temperature: 20.0°C ( 68°F)
Dewpoint: 16.7°C ( 62°F) [RH = 81%]
Pressure (altimeter):29.81 inches Hg (1009.6 mb)
Winds:from the E (100 degrees) at 5 MPH (4 knots; 2.1 m/s)
Visibility:10 or more sm (16+ km)
Ceiling:3500 feet AGL
Clouds: scattered clouds at 2800 feet AGL, broken clouds at 3500 feet AGL, broken clouds at 4200 feet AGL
Text:KPOU 252111Z 00000KT 10SM BKN026 BKN037 21/17 A2982 RMK AO2 T02060167
Temperature: 20.6°C ( 69°F)
Dewpoint: 16.7°C ( 62°F) [RH = 78%]
Pressure (altimeter):29.82 inches Hg (1009.9 mb)
Winds:calm
Visibility:10 or more sm (16+ km)
Ceiling:2600 feet AGL
Clouds: broken clouds at 2600 feet AGL, broken clouds at 3700 feet AGL
Text:KPOU 252053Z 00000KT 10SM SCT028 BKN034 21/16 A2982 RMK AO2 SLP096 T02060161 58012
Temperature: 20.6°C ( 69°F)
Dewpoint: 16.1°C ( 61°F) [RH = 75%]
Pressure (altimeter):29.82 inches Hg (1009.9 mb) [Sea level pressure: 1009.6 mb]
Winds:calm
Visibility:10 or more sm (16+ km)
Ceiling:3400 feet AGL
Clouds: scattered clouds at 2800 feet AGL, broken clouds at 3400 feet AGL
Text:KPOU 251953Z 17003KT 10SM CLR 21/16 A2984 RMK AO2 SLP100 T02110161
Temperature: 21.1°C ( 70°F)
Dewpoint: 16.1°C ( 61°F) [RH = 73%]
Pressure (altimeter):29.84 inches Hg (1010.6 mb) [Sea level pressure: 1010.0 mb]
Winds:from the S (170 degrees) at 3 MPH (3 knots; 1.5 m/s)
Visibility:10 or more sm (16+ km)
Ceiling:at least 12,000 feet AGL
Clouds:sky clear below 12,000 feet AGL
Text:KPOU 251906Z 17004KT 10SM FEW024 BKN031 20/16 A2985 RMK AO2 T02000156
Temperature: 20.0°C ( 68°F)
Dewpoint: 15.6°C ( 60°F) [RH = 76%]
Pressure (altimeter):29.85 inches Hg (1010.9 mb)
Winds:from the S (170 degrees) at 5 MPH (4 knots; 2.1 m/s)
Visibility:10 or more sm (16+ km)
Ceiling:3100 feet AGL
Clouds: few clouds at 2400 feet AGL, broken clouds at 3100 feet AGL
Text:KPOU 251853Z 16006KT 10SM BKN028 20/16 A2985 RMK AO2 SLP106 T02000156
Temperature: 20.0°C ( 68°F)
Dewpoint: 15.6°C ( 60°F) [RH = 76%]
Pressure (altimeter):29.85 inches Hg (1010.9 mb) [Sea level pressure: 1010.6 mb]
Winds:from the SSE (160 degrees) at 7 MPH (6 knots; 3.1 m/s)
Visibility:10 or more sm (16+ km)
Ceiling:2800 feet AGL
Clouds: broken clouds at 2800 feet AGL
Text:KPOU 251753Z 16004KT 10SM BKN026 20/15 A2986 RMK AO2 SLP108 T02000150 10200 20117 58025
Temperature: 20.0°C ( 68°F)
Dewpoint: 15.0°C ( 59°F) [RH = 73%]
Pressure (altimeter):29.86 inches Hg (1011.3 mb) [Sea level pressure: 1010.8 mb]
Winds:from the SSE (160 degrees) at 5 MPH (4 knots; 2.1 m/s)
Visibility:10 or more sm (16+ km)
Ceiling:2600 feet AGL
Clouds: broken clouds at 2600 feet AGL